createdAt,value
2022-11-02T00:03:47.930Z,100816.17
2022-11-02T00:08:53.833Z,100820.14
2022-11-02T00:13:59.718Z,100818.20
2022-11-02T00:19:06.656Z,100817.36
2022-11-02T00:24:12.859Z,100815.11
2022-11-02T00:29:18.902Z,100811.46
2022-11-02T00:34:25.544Z,100814.69
2022-11-02T00:39:31.557Z,100820.05
2022-11-02T00:44:37.501Z,100821.14
2022-11-02T00:49:43.636Z,100820.66
2022-11-02T00:54:50.442Z,100818.52
2022-11-02T00:59:57.233Z,100819.84
2022-11-02T01:05:03.262Z,100820.66
2022-11-02T01:10:10.595Z,100816.51
2022-11-02T01:15:16.785Z,100816.15
2022-11-02T01:20:23.298Z,100814.38
2022-11-02T01:25:29.234Z,100809.66
2022-11-02T01:30:38.162Z,100805.85
2022-11-02T01:35:44.454Z,100802.58
2022-11-02T01:40:50.322Z,100803.73
2022-11-02T01:46:00.118Z,100800.03
2022-11-02T01:51:09.664Z,100800.34
2022-11-02T01:56:18.234Z,100795.48
2022-11-02T02:01:26.326Z,100797.73
2022-11-02T02:06:32.688Z,100799.75
2022-11-02T02:11:40.718Z,100805.74
2022-11-02T02:16:57.296Z,100803.28
2022-11-02T02:22:26.947Z,100806.20
2022-11-02T02:27:46.484Z,100808.23
2022-11-02T02:32:57.537Z,100804.88
2022-11-02T02:38:07.756Z,100803.39
2022-11-02T02:43:21.073Z,100805.78
2022-11-02T02:48:27.387Z,100808.55
2022-11-02T02:53:38.722Z,100811.64
2022-11-02T02:58:52.994Z,100813.98
2022-11-02T03:03:59.635Z,100821.35
2022-11-02T03:09:16.778Z,100826.38
2022-11-02T03:14:38.457Z,100827.77
2022-11-02T03:19:53.246Z,100821.42
2022-11-02T03:25:10.368Z,100821.54
2022-11-02T03:30:19.981Z,100820.92
2022-11-02T03:35:36.015Z,100816.52
2022-11-02T03:40:47.062Z,100818.76
2022-11-02T03:45:55.972Z,100823.21
2022-11-02T03:51:08.829Z,100833.57
2022-11-02T03:56:21.444Z,100828.95
2022-11-02T04:01:29.639Z,100831.66
2022-11-02T04:06:36.996Z,100836.50
2022-11-02T04:12:01.923Z,100838.52
2022-11-02T04:17:28.775Z,100842.59
2022-11-02T04:22:54.001Z,100845.28
2022-11-02T04:28:08.999Z,100846.05
2022-11-02T04:33:35.265Z,100846.87
2022-11-02T04:38:53.725Z,100841.61
2022-11-02T04:44:04.253Z,100838.05
2022-11-02T04:49:11.247Z,100840.77
2022-11-02T04:54:17.258Z,100846.92
2022-11-02T04:59:23.666Z,100847.30
2022-11-02T05:04:29.813Z,100844.53
2022-11-02T05:09:36.105Z,100846.75
2022-11-02T05:14:42.693Z,100849.10
2022-11-02T05:19:48.940Z,100854.58
2022-11-02T05:24:54.863Z,100858.13
2022-11-02T05:30:02.037Z,100863.61
2022-11-02T05:35:09.725Z,100870.73
2022-11-02T05:40:17.666Z,100876.35
2022-11-02T05:45:24.903Z,100878.30
2022-11-02T05:50:31.014Z,100879.77
2022-11-02T05:55:38.683Z,100883.98
2022-11-02T06:00:44.617Z,100891.94
2022-11-02T06:05:57.904Z,100900.04
2022-11-02T06:11:06.859Z,100895.64
2022-11-02T06:16:18.703Z,100902.21
2022-11-02T06:21:28.458Z,100901.13
2022-11-02T06:26:34.248Z,100903.83
2022-11-02T06:31:40.315Z,100910.81
2022-11-02T06:36:46.286Z,100920.81
2022-11-02T06:41:52.814Z,100922.79
2022-11-02T06:46:59.236Z,100927.06
2022-11-02T06:52:05.435Z,100929.52
2022-11-02T06:57:11.303Z,100926.86
2022-11-02T07:02:17.329Z,100926.83
2022-11-02T07:07:23.486Z,100927.02
2022-11-02T07:12:31.557Z,100929.11
2022-11-02T07:17:41.169Z,100926.64
2022-11-02T07:22:55.863Z,100934.16
2022-11-02T07:28:02.912Z,100944.14
2022-11-02T07:33:09.038Z,100940.21
2022-11-02T07:38:15.329Z,100937.19
2022-11-02T07:43:21.626Z,100939.36
2022-11-02T07:48:36.152Z,100933.95
2022-11-02T07:53:42.610Z,100931.39
2022-11-02T07:58:49.101Z,100934.88
2022-11-02T08:03:56.511Z,100936.73
2022-11-02T08:09:03.322Z,100936.33
2022-11-02T08:14:29.141Z,100933.64
2022-11-02T08:19:35.239Z,100939.54
2022-11-02T08:24:41.293Z,100937.85
2022-11-02T08:29:47.106Z,100937.80
2022-11-02T08:34:53.120Z,100935.63
2022-11-02T08:39:59.000Z,100932.97
2022-11-02T08:45:06.168Z,100933.67
2022-11-02T08:50:13.672Z,100935.17
2022-11-02T08:55:21.136Z,100933.73
2022-11-02T09:00:30.089Z,100935.86
2022-11-02T09:05:37.932Z,100937.03
2022-11-02T09:10:46.021Z,100939.79
2022-11-02T09:15:53.833Z,100940.30
2022-11-02T09:21:03.820Z,100937.87
2022-11-02T09:26:09.649Z,100935.02
2022-11-02T09:31:15.585Z,100929.10
2022-11-02T09:36:21.819Z,100931.06
2022-11-02T09:41:36.668Z,100931.35
2022-11-02T09:46:46.040Z,100930.80
2022-11-02T09:51:55.312Z,100936.85
2022-11-02T09:57:05.385Z,100940.75
2022-11-02T10:02:25.312Z,100946.73
2022-11-02T10:07:57.315Z,100950.66
2022-11-02T10:13:14.736Z,100951.77
2022-11-02T10:18:24.663Z,100953.73
2022-11-02T10:23:33.681Z,100954.03
2022-11-02T10:28:43.933Z,100953.05
2022-11-02T10:33:52.867Z,100954.55
2022-11-02T10:39:12.554Z,100958.02
2022-11-02T10:44:32.947Z,100957.41
2022-11-02T10:49:58.518Z,100954.36
2022-11-02T10:55:05.117Z,100955.09
2022-11-02T11:00:26.992Z,100956.98
2022-11-02T11:05:33.941Z,100962.89
2022-11-02T11:10:40.680Z,100957.89
2022-11-02T11:15:52.642Z,100953.77
2022-11-02T11:20:59.693Z,100958.09
2022-11-02T11:26:12.157Z,100956.46
2022-11-02T11:31:19.753Z,100950.77
2022-11-02T11:36:30.389Z,100945.77
2022-11-02T11:41:43.758Z,100939.55
2022-11-02T11:46:54.209Z,100933.99
2022-11-02T11:52:02.734Z,100929.16
2022-11-02T11:57:28.297Z,100928.38
2022-11-02T12:02:40.951Z,100934.48
2022-11-02T12:08:20.452Z,100934.48
2022-11-02T12:13:45.646Z,100936.05
2022-11-02T12:19:04.507Z,100926.76
2022-11-02T12:24:33.616Z,100923.84
2022-11-02T12:30:01.402Z,100922.59
2022-11-02T12:35:32.234Z,100923.39
2022-11-02T12:40:54.751Z,100918.83
2022-11-02T12:46:07.722Z,100919.92
2022-11-02T12:51:16.735Z,100915.13
2022-11-02T12:56:26.449Z,100917.00
2022-11-02T13:01:35.984Z,100912.17
2022-11-02T13:06:44.529Z,100907.88
2022-11-02T13:12:06.194Z,100906.14
2022-11-02T13:17:17.967Z,100903.04
2022-11-02T13:22:32.116Z,100897.67
2022-11-02T13:27:46.107Z,100899.38
2022-11-02T13:32:58.753Z,100902.95
2022-11-02T13:38:13.567Z,100905.84
2022-11-02T13:43:47.947Z,100909.08
2022-11-02T13:48:59.152Z,100917.14
2022-11-02T13:54:07.105Z,100920.20
2022-11-02T13:59:23.619Z,100919.83
2022-11-02T14:04:37.904Z,100920.89
2022-11-02T14:09:45.724Z,100930.58
2022-11-02T14:15:46.615Z,100934.80
2022-11-02T14:20:52.893Z,100928.30
2022-11-02T14:25:59.610Z,100930.95
2022-11-02T14:31:31.638Z,100932.05
2022-11-02T14:36:55.449Z,100938.75
2022-11-02T14:42:19.672Z,100942.72
2022-11-02T14:47:29.906Z,100940.89
2022-11-02T14:52:37.807Z,100937.55
2022-11-02T14:57:52.595Z,100941.45
2022-11-02T15:03:00.702Z,100941.47
2022-11-02T15:08:09.305Z,100943.23
2022-11-02T15:13:39.988Z,100942.85
2022-11-02T15:18:46.066Z,100940.88
2022-11-02T15:24:16.982Z,100944.85
2022-11-02T15:29:37.059Z,100947.90
2022-11-02T15:34:48.050Z,100947.97
2022-11-02T15:39:57.097Z,100956.71
2022-11-02T15:45:51.856Z,100962.78
2022-11-02T15:51:14.470Z,100966.83
2022-11-02T15:56:39.895Z,100975.85
2022-11-02T16:01:46.120Z,100980.60
2022-11-02T16:06:53.205Z,100992.30
2022-11-02T16:12:13.192Z,100990.98
2022-11-02T16:17:24.820Z,100991.64
2022-11-02T16:22:31.001Z,100991.27
2022-11-02T16:27:40.705Z,100989.95
2022-11-02T16:32:49.786Z,100988.73
2022-11-02T16:37:56.192Z,100988.39
2022-11-02T16:43:02.189Z,100996.16
2022-11-02T16:48:21.738Z,101002.77
2022-11-02T16:53:32.014Z,101005.74
2022-11-02T16:58:38.142Z,101005.35
2022-11-02T17:03:44.170Z,101006.35
2022-11-02T17:08:55.502Z,101007.58
2022-11-02T17:14:02.696Z,101013.41
2022-11-02T17:19:46.905Z,101015.00
2022-11-02T17:25:04.783Z,101021.58
2022-11-02T17:30:40.615Z,101022.59
2022-11-02T17:35:50.582Z,101017.39
2022-11-02T17:40:59.224Z,101014.67
2022-11-02T17:46:05.213Z,101016.17
2022-11-02T17:51:15.483Z,101017.13
2022-11-02T17:56:22.429Z,101014.64
2022-11-02T18:01:28.807Z,101012.78
2022-11-02T18:06:35.268Z,101010.23
2022-11-02T18:11:41.576Z,101008.45
2022-11-02T18:16:48.268Z,101008.58
2022-11-02T18:21:54.185Z,101008.88
2022-11-02T18:27:00.341Z,101003.66
2022-11-02T18:32:06.628Z,101004.92
2022-11-02T18:37:12.586Z,101005.11
2022-11-02T18:42:18.748Z,101005.80
2022-11-02T18:47:25.403Z,101007.89
2022-11-02T18:52:32.488Z,101008.10
2022-11-02T18:57:38.591Z,101005.31
2022-11-02T19:02:44.772Z,101004.86
2022-11-02T19:08:09.658Z,101001.72
2022-11-02T19:13:16.120Z,101000.38
2022-11-02T19:18:22.431Z,101004.79
2022-11-02T19:23:28.475Z,101007.80
2022-11-02T19:28:34.496Z,101010.32
2022-11-02T19:33:40.821Z,101015.34
2022-11-02T19:38:46.744Z,101024.38
2022-11-02T19:43:53.402Z,101031.33
2022-11-02T19:48:59.742Z,101042.68
2022-11-02T19:54:06.391Z,101053.36
2022-11-02T19:59:12.944Z,101050.30
2022-11-02T20:04:19.335Z,101051.35
2022-11-02T20:09:25.246Z,101054.36
2022-11-02T20:14:31.428Z,101060.02
2022-11-02T20:19:37.867Z,101064.59
2022-11-02T20:24:44.133Z,101071.75
2022-11-02T20:29:50.376Z,101072.81
2022-11-02T20:34:56.246Z,101077.23
2022-11-02T20:40:02.384Z,101075.21
2022-11-02T20:45:10.435Z,101081.97
2022-11-02T20:50:19.409Z,101078.65
2022-11-02T20:55:29.975Z,101082.20
2022-11-02T21:00:36.261Z,101079.67
2022-11-02T21:05:42.797Z,101088.25
2022-11-02T21:10:57.949Z,101086.13
2022-11-02T21:16:05.953Z,101085.34
2022-11-02T21:21:13.932Z,101088.70
2022-11-02T21:26:19.802Z,101085.73
2022-11-02T21:31:26.033Z,101081.09
2022-11-02T21:36:32.075Z,101078.90
2022-11-02T21:41:39.096Z,101086.41
2022-11-02T21:46:45.091Z,101087.16
2022-11-02T21:51:50.963Z,101081.59
2022-11-02T21:56:58.251Z,101081.73
2022-11-02T22:02:04.309Z,101086.14
2022-11-02T22:07:10.666Z,101083.33
2022-11-02T22:12:35.492Z,101090.35
2022-11-02T22:17:49.549Z,101098.99
2022-11-02T22:22:56.107Z,101100.64
2022-11-02T22:28:02.094Z,101099.11
2022-11-02T22:33:11.425Z,101097.20
2022-11-02T22:38:36.017Z,101101.16
2022-11-02T22:43:42.475Z,101100.83
2022-11-02T22:48:50.222Z,101105.71
2022-11-02T22:53:59.571Z,101105.93
2022-11-02T22:59:06.137Z,101102.81
2022-11-02T23:04:13.350Z,101107.70
2022-11-02T23:09:19.463Z,101111.14
2022-11-02T23:14:25.313Z,101122.24
2022-11-02T23:19:31.803Z,101126.05
2022-11-02T23:24:57.192Z,101134.36
2022-11-02T23:30:22.422Z,101141.36
2022-11-02T23:35:47.262Z,101147.23
2022-11-02T23:40:56.209Z,101147.05
2022-11-02T23:46:02.460Z,101147.00
2022-11-02T23:51:27.874Z,101148.86
2022-11-02T23:56:44.237Z,101150.73
